Time;durP1;ratioP1;P1;durP2;ratioP2;P2;SDS_P1;SDS_P2;PMS_P1;PMS_P2;Temp;Humidity;BMP_temperature;BMP_pressure;BME280_temperature;BME280_humidity;BME280_pressure;Samples;Min_cycle;Max_cycle;Signal;HPM_P1;HPM_P2
2022/03/14 00:01:17;;;;;;;10.03;7.90;;;14.00;1.00;;;;;;5079127;28;20522;-79
2022/03/14 00:03:55;;;;;;;13.53;8.60;;;13.90;1.00;;;;;;5082033;28;20453;-79
2022/03/14 00:06:23;;;;;;;13.67;8.60;;;13.80;1.00;;;;;;5084653;28;20574;-79
2022/03/14 00:08:54;;;;;;;11.23;8.03;;;13.80;1.00;;;;;;5082255;28;20493;-79
2022/03/14 00:11:23;;;;;;;14.53;8.77;;;13.70;1.00;;;;;;5077674;28;20456;-79
2022/03/14 00:13:51;;;;;;;13.03;8.23;;;13.70;1.00;;;;;;5082339;28;20517;-79
2022/03/14 00:16:25;;;;;;;16.47;10.23;;;13.70;1.00;;;;;;5079972;28;20464;-79
2022/03/14 00:18:57;;;;;;;13.37;7.97;;;13.70;1.00;;;;;;5076169;28;20485;-78
2022/03/14 00:21:27;;;;;;;14.50;8.40;;;13.70;1.00;;;;;;5075736;28;20494;-79
2022/03/14 00:23:57;;;;;;;12.70;9.40;;;13.70;1.00;;;;;;5083441;28;20457;-78
2022/03/14 00:26:26;;;;;;;11.30;8.20;;;13.70;1.00;;;;;;5077956;28;20784;-79
2022/03/14 00:28:54;;;;;;;10.77;8.80;;;13.80;1.00;;;;;;5086783;28;20481;-79
2022/03/14 00:31:24;;;;;;;12.17;8.63;;;13.70;1.00;;;;;;5079676;28;20460;-78
2022/03/14 00:33:53;;;;;;;10.33;7.67;;;13.70;1.00;;;;;;5085803;28;20451;-79
2022/03/14 00:36:22;;;;;;;13.30;7.60;;;13.80;1.00;;;;;;5078732;28;21903;-78
2022/03/14 00:38:53;;;;;;;14.77;8.70;;;13.80;1.00;;;;;;5081977;28;20471;-78
2022/03/14 00:41:21;;;;;;;14.20;8.30;;;13.80;1.00;;;;;;5076416;28;20479;-79
2022/03/14 00:43:50;;;;;;;10.23;7.50;;;13.70;1.00;;;;;;5075856;28;20454;-78
2022/03/14 00:46:18;;;;;;;12.83;7.17;;;13.80;1.00;;;;;;5081408;28;20539;-79
2022/03/14 00:48:48;;;;;;;11.30;8.47;;;13.70;1.00;;;;;;5081184;28;21034;-80
2022/03/14 00:51:16;;;;;;;10.77;8.27;;;13.60;1.00;;;;;;5083012;28;20943;-79
2022/03/14 00:53:45;;;;;;;12.67;9.30;;;13.60;1.00;;;;;;5082119;28;20975;-79
2022/03/14 00:56:13;;;;;;;13.87;7.90;;;13.50;1.00;;;;;;5086433;28;20452;-78
2022/03/14 00:58:42;;;;;;;11.83;7.73;;;13.70;1.00;;;;;;5077140;28;20483;-79
2022/03/14 01:01:10;;;;;;;11.60;8.20;;;13.60;1.00;;;;;;5079764;28;20513;-79
2022/03/14 01:03:38;;;;;;;10.70;8.50;;;13.70;1.00;;;;;;5081610;28;20469;-80
2022/03/14 01:06:07;;;;;;;16.60;8.73;;;13.70;1.00;;;;;;5076960;28;20452;-79
2022/03/14 01:08:36;;;;;;;12.00;7.83;;;13.50;1.00;;;;;;5079775;28;20487;-79
2022/03/14 01:11:04;;;;;;;13.37;8.20;;;13.50;1.00;;;;;;5079508;28;20494;-78
2022/03/14 01:13:32;;;;;;;10.13;8.40;;;13.50;1.00;;;;;;5082274;28;20448;-78
2022/03/14 01:16:01;;;;;;;14.60;8.00;;;13.40;1.00;;;;;;5075465;28;20544;-79
2022/03/14 01:18:29;;;;;;;14.13;9.33;;;13.40;1.00;;;;;;5078876;28;20471;-78
2022/03/14 01:20:58;;;;;;;12.43;7.93;;;13.40;1.00;;;;;;5076053;28;20457;-78
2022/03/14 01:23:27;;;;;;;13.63;9.00;;;13.30;1.00;;;;;;5078034;28;20486;-78
2022/03/14 01:25:55;;;;;;;11.93;7.87;;;13.20;1.00;;;;;;5085760;28;20667;-78
2022/03/14 01:28:23;;;;;;;15.80;8.10;;;13.30;1.00;;;;;;5081643;28;20478;-79
2022/03/14 01:30:52;;;;;;;10.97;8.37;;;13.30;1.00;;;;;;5081410;28;20463;-79
2022/03/14 01:33:20;;;;;;;11.53;8.90;;;13.30;1.00;;;;;;5076330;28;20452;-78
2022/03/14 01:35:48;;;;;;;12.30;8.07;;;13.30;1.00;;;;;;5079357;28;20452;-79
2022/03/14 01:38:16;;;;;;;10.47;7.97;;;13.40;1.00;;;;;;5075094;28;20478;-79
2022/03/14 01:40:46;;;;;;;10.47;8.00;;;13.40;1.00;;;;;;5077832;28;20453;-78
2022/03/14 01:43:16;;;;;;;12.27;8.20;;;13.40;1.00;;;;;;5084457;28;20525;-80
2022/03/14 01:45:46;;;;;;;10.93;7.97;;;13.40;1.00;;;;;;5077457;28;20441;-79
2022/03/14 01:48:14;;;;;;;11.10;8.10;;;13.40;1.00;;;;;;5083902;28;20471;-79
2022/03/14 01:50:42;;;;;;;12.27;8.60;;;13.40;1.00;;;;;;5082259;28;20456;-79
2022/03/14 01:53:11;;;;;;;11.17;8.10;;;13.40;1.00;;;;;;5084303;28;20446;-78
2022/03/14 01:55:39;;;;;;;9.50;8.50;;;13.40;1.00;;;;;;5083054;28;20451;-79
2022/03/14 01:58:09;;;;;;;15.70;8.50;;;13.40;1.00;;;;;;5077282;28;20469;-79
2022/03/14 02:00:39;;;;;;;11.23;8.00;;;13.20;1.00;;;;;;5081256;28;20513;-79
2022/03/14 02:03:07;;;;;;;11.27;9.43;;;13.00;1.00;;;;;;5090977;28;20823;-79
2022/03/14 02:05:37;;;;;;;11.27;9.13;;;13.10;1.00;;;;;;5089209;28;20448;-80
2022/03/14 02:08:06;;;;;;;10.20;8.67;;;13.20;1.00;;;;;;5087652;28;20550;-81
2022/03/14 02:10:35;;;;;;;11.50;8.23;;;13.30;1.00;;;;;;5084734;28;20509;-78
2022/03/14 02:13:06;;;;;;;13.17;8.57;;;13.40;1.00;;;;;;5086306;28;20459;-78
2022/03/14 02:15:37;;;;;;;11.80;8.10;;;13.50;1.00;;;;;;5086660;28;20483;-78
2022/03/14 02:18:06;;;;;;;13.03;8.03;;;13.50;1.00;;;;;;5083074;28;20990;-78
2022/03/14 02:20:36;;;;;;;11.83;7.93;;;13.60;1.00;;;;;;5084149;28;20451;-79
2022/03/14 02:23:04;;;;;;;11.20;7.97;;;13.70;1.00;;;;;;5080001;28;20518;-78
2022/03/14 02:25:35;;;;;;;12.03;7.57;;;13.70;1.00;;;;;;5082506;28;20943;-79
2022/03/14 02:28:04;;;;;;;9.33;6.70;;;13.80;1.00;;;;;;5080128;28;20468;-78
2022/03/14 02:30:32;;;;;;;10.20;7.03;;;13.80;1.00;;;;;;5080710;28;20440;-79
2022/03/14 02:33:01;;;;;;;8.10;5.77;;;14.00;1.00;;;;;;5079252;28;20485;-79
2022/03/14 02:35:29;;;;;;;9.30;6.27;;;13.70;1.00;;;;;;5085128;28;20957;-79
2022/03/14 02:37:59;;;;;;;6.30;5.30;;;13.70;1.00;;;;;;5082290;28;20471;-79
2022/03/14 02:40:27;;;;;;;11.10;6.13;;;13.70;1.00;;;;;;5080191;28;20944;-79
2022/03/14 02:42:56;;;;;;;7.23;6.00;;;13.70;1.00;;;;;;5082330;28;21242;-80
2022/03/14 02:45:24;;;;;;;8.13;6.33;;;13.70;1.00;;;;;;5083607;28;20983;-79
2022/03/14 02:47:53;;;;;;;10.13;5.23;;;13.40;1.00;;;;;;5084108;28;20451;-79
2022/03/14 02:50:21;;;;;;;11.90;5.93;;;13.20;8.70;;;;;;5086550;28;21014;-79
2022/03/14 02:52:49;;;;;;;5.90;4.67;;;13.30;18.90;;;;;;5080811;28;20448;-79
2022/03/14 02:55:21;;;;;;;8.50;5.70;;;13.40;20.10;;;;;;5080371;28;20901;-79
2022/03/14 02:57:49;;;;;;;7.17;6.10;;;13.50;29.10;;;;;;5081393;28;21233;-79
2022/03/14 03:00:17;;;;;;;8.27;5.60;;;13.30;31.40;;;;;;5084268;28;20470;-79
2022/03/14 03:02:45;;;;;;;9.43;6.53;;;13.20;45.10;;;;;;5081354;28;20530;-79
2022/03/14 03:05:14;;;;;;;9.80;5.80;;;13.10;49.40;;;;;;5085234;28;20464;-80
2022/03/14 03:07:43;;;;;;;8.47;6.00;;;13.00;48.70;;;;;;5080039;28;20959;-79
2022/03/14 03:10:12;;;;;;;7.60;5.00;;;12.80;71.70;;;;;;5076077;28;20510;-78
2022/03/14 03:12:42;;;;;;;8.00;4.70;;;12.60;89.10;;;;;;5084895;28;21016;-79
2022/03/14 03:15:15;;;;;;;9.03;6.13;;;12.60;97.80;;;;;;5081604;28;20537;-79
2022/03/14 03:17:43;;;;;;;5.77;4.23;;;12.50;99.90;;;;;;5080089;28;20439;-80
2022/03/14 03:20:14;;;;;;;6.70;4.13;;;12.40;99.90;;;;;;5081316;28;20455;-79
2022/03/14 03:22:42;;;;;;;5.97;4.30;;;12.40;99.90;;;;;;5081978;28;20460;-80
2022/03/14 03:25:10;;;;;;;3.60;3.00;;;12.30;99.90;;;;;;5084198;28;20796;-80
2022/03/14 03:27:39;;;;;;;3.43;2.73;;;12.30;99.90;;;;;;5085735;28;20459;-80
2022/03/14 03:30:09;;;;;;;4.30;2.73;;;12.20;99.90;;;;;;5080416;28;20512;-80
2022/03/14 03:32:37;;;;;;;4.50;2.60;;;12.20;99.90;;;;;;5082152;28;20472;-79
2022/03/14 03:35:06;;;;;;;3.07;1.93;;;12.40;99.90;;;;;;5083175;28;20474;-79
2022/03/14 03:37:35;;;;;;;2.60;2.40;;;12.60;99.90;;;;;;5085670;28;20459;-78
2022/03/14 03:40:04;;;;;;;2.10;1.83;;;12.50;99.90;;;;;;5082186;28;21017;-79
2022/03/14 03:42:32;;;;;;;3.07;2.03;;;12.50;99.90;;;;;;5077336;28;20922;-78
2022/03/14 03:45:00;;;;;;;3.30;2.50;;;12.50;99.90;;;;;;5083370;28;20475;-78
2022/03/14 03:47:30;;;;;;;1.83;1.30;;;12.40;99.90;;;;;;5082807;28;21006;-79
2022/03/14 03:49:58;;;;;;;2.10;1.90;;;12.20;99.90;;;;;;5082248;28;20544;-79
2022/03/14 03:52:26;;;;;;;1.40;1.30;;;12.20;99.90;;;;;;5082231;28;20493;-79
2022/03/14 03:54:55;;;;;;;1.10;1.00;;;12.20;99.90;;;;;;5083991;28;20454;-78
2022/03/14 03:57:23;;;;;;;1.10;1.00;;;11.70;99.90;;;;;;5074720;28;20533;-80
2022/03/14 03:59:51;;;;;;;0.97;0.90;;;11.70;99.90;;;;;;5081168;28;20478;-79
2022/03/14 04:02:19;;;;;;;1.90;0.90;;;11.90;99.90;;;;;;5080341;28;20447;-79
2022/03/14 04:04:50;;;;;;;1.63;0.90;;;12.00;99.90;;;;;;5077560;28;21090;-79
2022/03/14 04:07:23;;;;;;;0.87;0.87;;;12.20;99.90;;;;;;5082368;28;20979;-79
2022/03/14 04:09:55;;;;;;;0.70;0.70;;;12.20;99.90;;;;;;5085117;28;20810;-79
2022/03/14 04:12:25;;;;;;;0.87;0.80;;;12.10;99.90;;;;;;5087254;28;20453;-79
2022/03/14 04:14:56;;;;;;;0.97;0.60;;;12.00;99.90;;;;;;5081023;28;20953;-79
2022/03/14 04:17:25;;;;;;;1.10;1.00;;;12.00;99.90;;;;;;5085912;28;20450;-78
2022/03/14 04:19:57;;;;;;;1.10;0.90;;;11.90;99.90;;;;;;5088291;28;20489;-80
2022/03/14 04:22:25;;;;;;;0.97;0.90;;;11.90;99.90;;;;;;5087132;28;20459;-79
2022/03/14 04:24:53;;;;;;;0.80;0.80;;;11.80;99.90;;;;;;5081202;28;20465;-81
2022/03/14 04:27:21;;;;;;;0.60;0.60;;;11.70;99.90;;;;;;5080286;28;20463;-80
2022/03/14 04:29:50;;;;;;;0.63;0.63;;;11.60;99.90;;;;;;5079696;28;20500;-80
2022/03/14 04:32:18;;;;;;;0.50;0.50;;;11.50;99.90;;;;;;5082231;28;21022;-80
2022/03/14 04:34:46;;;;;;;0.90;0.77;;;11.30;99.90;;;;;;5075055;28;21079;-79
2022/03/14 04:37:16;;;;;;;0.60;0.60;;;11.20;99.90;;;;;;5080195;28;20462;-80
2022/03/14 04:39:44;;;;;;;1.37;0.87;;;11.20;99.90;;;;;;5083292;28;20497;-81
2022/03/14 04:42:14;;;;;;;1.40;1.07;;;11.30;99.90;;;;;;5082621;28;20451;-80
2022/03/14 04:44:44;;;;;;;1.10;1.00;;;11.50;99.90;;;;;;5085987;28;20481;-79
2022/03/14 04:47:12;;;;;;;0.93;0.83;;;11.70;99.90;;;;;;5082914;28;20455;-79
2022/03/14 04:49:40;;;;;;;1.03;0.60;;;11.80;99.90;;;;;;5083938;28;20474;-79
2022/03/14 04:52:10;;;;;;;0.70;0.60;;;11.70;99.90;;;;;;5081701;28;20458;-79
2022/03/14 04:54:39;;;;;;;0.60;0.60;;;11.70;99.90;;;;;;5081618;28;20453;-79
2022/03/14 04:57:09;;;;;;;0.60;0.53;;;11.80;99.90;;;;;;5083472;28;20485;-78
2022/03/14 04:59:37;;;;;;;0.40;0.40;;;11.90;99.90;;;;;;5081033;28;20473;-79
2022/03/14 05:02:06;;;;;;;0.70;0.63;;;11.80;99.90;;;;;;5077850;28;20443;-79
2022/03/14 05:04:35;;;;;;;0.50;0.50;;;11.80;99.90;;;;;;5081857;28;21004;-78
2022/03/14 05:07:06;;;;;;;0.57;0.57;;;11.70;99.90;;;;;;5083559;28;20507;-79
2022/03/14 05:09:34;;;;;;;0.50;0.50;;;11.70;99.90;;;;;;5082959;28;20480;-81
2022/03/14 05:12:04;;;;;;;0.50;0.50;;;11.80;99.90;;;;;;5082518;28;20462;-80
2022/03/14 05:14:32;;;;;;;0.60;0.60;;;11.90;99.90;;;;;;5085182;28;20448;-78
2022/03/14 05:17:00;;;;;;;0.50;0.50;;;12.10;99.90;;;;;;5084400;28;20454;-78
2022/03/14 05:19:28;;;;;;;0.67;0.50;;;11.90;99.90;;;;;;5083758;28;20557;-79
2022/03/14 05:21:57;;;;;;;0.40;0.40;;;12.10;99.90;;;;;;5083497;28;20459;-79
2022/03/14 05:24:25;;;;;;;0.47;0.47;;;11.90;99.90;;;;;;5088384;28;20469;-79
2022/03/14 05:26:54;;;;;;;0.50;0.50;;;12.10;99.90;;;;;;5087626;28;20957;-80
2022/03/14 05:29:23;;;;;;;0.60;0.50;;;12.20;99.90;;;;;;5087459;28;20466;-79
2022/03/14 05:31:51;;;;;;;0.50;0.50;;;12.10;99.90;;;;;;5085617;28;20480;-80
2022/03/14 05:34:20;;;;;;;0.40;0.40;;;12.10;99.90;;;;;;5087899;28;21699;-77
2022/03/14 05:36:48;;;;;;;0.60;0.60;;;12.00;99.90;;;;;;5089185;28;20999;-76
2022/03/14 05:39:16;;;;;;;0.50;0.50;;;12.00;99.90;;;;;;5079830;28;20861;-78
2022/03/14 05:41:44;;;;;;;0.60;0.60;;;12.00;99.90;;;;;;5087155;28;20572;-76
2022/03/14 05:44:13;;;;;;;0.50;0.50;;;11.80;99.90;;;;;;5086781;28;20502;-76
2022/03/14 05:46:42;;;;;;;0.93;0.53;;;11.70;99.90;;;;;;5086634;28;20845;-76
2022/03/14 05:49:10;;;;;;;0.70;0.70;;;11.60;99.90;;;;;;5089124;28;20503;-75
2022/03/14 05:51:39;;;;;;;1.07;0.50;;;11.60;99.90;;;;;;5082603;28;20786;-76
2022/03/14 05:54:08;;;;;;;0.50;0.50;;;11.40;99.90;;;;;;5089020;28;20452;-76
2022/03/14 05:56:36;;;;;;;0.60;0.60;;;11.10;99.90;;;;;;5081537;28;20451;-77
2022/03/14 05:59:07;;;;;;;3.70;0.60;;;11.20;99.90;;;;;;5079996;28;20471;-77
2022/03/14 06:01:39;;;;;;;1.13;0.50;;;11.40;99.90;;;;;;5087924;28;20461;-76
2022/03/14 06:04:08;;;;;;;0.50;0.50;;;11.50;99.90;;;;;;5085466;28;20453;-77
2022/03/14 06:06:40;;;;;;;0.40;0.40;;;11.30;99.90;;;;;;5087502;28;20560;-77
2022/03/14 06:09:08;;;;;;;0.50;0.50;;;11.50;99.90;;;;;;5085381;28;20492;-77
2022/03/14 06:11:38;;;;;;;0.50;0.50;;;11.40;99.90;;;;;;5083977;28;20453;-77
2022/03/14 06:14:06;;;;;;;0.40;0.40;;;11.60;99.90;;;;;;5081615;28;20457;-77
2022/03/14 06:16:35;;;;;;;0.53;0.50;;;11.50;99.90;;;;;;5088442;28;20445;-75
2022/03/14 06:19:03;;;;;;;0.50;0.50;;;11.40;99.90;;;;;;5087925;28;21012;-75
2022/03/14 06:21:34;;;;;;;0.50;0.50;;;11.40;99.90;;;;;;5087237;28;20442;-77
2022/03/14 06:24:03;;;;;;;3.17;0.70;;;11.50;99.90;;;;;;5089293;28;20455;-76
2022/03/14 06:26:34;;;;;;;2.13;0.90;;;11.50;99.90;;;;;;5081716;28;20437;-76
2022/03/14 06:29:03;;;;;;;0.60;0.60;;;11.60;99.90;;;;;;5084705;28;20636;-76
2022/03/14 06:31:31;;;;;;;1.10;0.80;;;11.60;99.90;;;;;;5085167;28;20448;-77
2022/03/14 06:34:00;;;;;;;2.83;1.70;;;11.60;99.90;;;;;;5084339;28;20575;-76
2022/03/14 06:36:29;;;;;;;1.17;0.57;;;11.40;99.90;;;;;;5101518;28;20500;-76
2022/03/14 06:38:59;;;;;;;0.60;0.60;;;11.20;99.90;;;;;;5081691;28;20480;-77
2022/03/14 06:41:27;;;;;;;1.00;0.73;;;11.30;99.90;;;;;;5087568;28;20465;-78
2022/03/14 06:43:56;;;;;;;0.90;0.90;;;11.30;99.90;;;;;;5085800;28;20462;-77
2022/03/14 06:46:24;;;;;;;1.83;0.90;;;11.00;99.90;;;;;;5079796;28;20989;-77
2022/03/14 06:48:53;;;;;;;1.30;0.80;;;11.50;99.90;;;;;;5081363;28;20557;-77
2022/03/14 06:51:21;;;;;;;0.70;0.70;;;11.70;99.90;;;;;;5086170;28;20533;-77
2022/03/14 06:53:50;;;;;;;1.27;0.50;;;11.80;99.90;;;;;;5089401;28;20450;-76
2022/03/14 06:56:20;;;;;;;0.50;0.50;;;12.10;99.90;;;;;;5079283;28;20449;-77
2022/03/14 06:58:49;;;;;;;0.50;0.50;;;12.00;99.90;;;;;;5081207;28;20526;-77
2022/03/14 07:01:18;;;;;;;0.80;0.67;;;11.80;99.90;;;;;;5078576;28;20512;-77
2022/03/14 07:03:47;;;;;;;0.60;0.60;;;11.80;99.90;;;;;;5082082;28;20470;-77
2022/03/14 07:06:15;;;;;;;0.50;0.50;;;11.70;99.90;;;;;;5083550;28;20478;-77
2022/03/14 07:08:43;;;;;;;0.50;0.50;;;11.80;99.90;;;;;;5075094;28;20976;-77
2022/03/14 07:11:11;;;;;;;0.53;0.53;;;11.80;99.90;;;;;;5079907;28;20463;-78
2022/03/14 07:13:41;;;;;;;1.23;0.70;;;11.80;99.90;;;;;;5081836;28;20447;-77
2022/03/14 07:16:09;;;;;;;0.80;0.73;;;12.00;99.90;;;;;;5086441;28;20449;-78
2022/03/14 07:18:37;;;;;;;0.60;0.50;;;12.10;99.90;;;;;;5081361;28;20600;-78
2022/03/14 07:21:05;;;;;;;0.53;0.50;;;12.10;99.90;;;;;;5081912;28;20481;-75
2022/03/14 07:23:34;;;;;;;0.50;0.50;;;12.00;99.90;;;;;;5077008;28;20447;-77
2022/03/14 07:26:02;;;;;;;0.50;0.50;;;12.00;99.90;;;;;;5082302;28;20470;-76
2022/03/14 07:28:30;;;;;;;1.70;0.50;;;12.30;99.90;;;;;;5083535;28;20477;-77
2022/03/14 07:31:00;;;;;;;0.50;0.50;;;12.20;99.90;;;;;;5086093;28;20454;-75
2022/03/14 07:33:29;;;;;;;0.50;0.50;;;12.30;99.90;;;;;;5089939;28;20522;-77
2022/03/14 07:35:57;;;;;;;0.53;0.53;;;12.30;99.90;;;;;;5090896;28;20438;-77
2022/03/14 07:38:25;;;;;;;0.50;0.50;;;12.00;99.90;;;;;;5081035;28;20444;-77
2022/03/14 07:40:53;;;;;;;1.00;0.90;;;11.80;99.90;;;;;;5084887;28;20198;-77
2022/03/14 07:43:21;;;;;;;0.60;0.50;;;11.60;99.90;;;;;;5081375;28;20860;-77
2022/03/14 07:45:50;;;;;;;0.98;0.50;;;11.70;99.90;;;;;;5072576;28;20599;-78
2022/03/14 07:48:19;;;;;;;0.50;0.50;;;11.90;99.90;;;;;;5081436;28;20261;-77
2022/03/14 07:50:47;;;;;;;0.80;0.50;;;11.70;99.90;;;;;;5085357;28;20450;-76
2022/03/14 07:53:18;;;;;;;1.43;0.50;;;11.80;99.90;;;;;;5084799;28;20445;-77
2022/03/14 07:55:47;;;;;;;0.83;0.60;;;11.90;99.90;;;;;;5085490;28;20446;-77
2022/03/14 07:58:15;;;;;;;0.60;0.60;;;12.10;99.90;;;;;;5076683;28;20489;-76
2022/03/14 08:00:44;;;;;;;0.70;0.60;;;12.30;99.90;;;;;;5079440;28;20450;-77
2022/03/14 08:03:12;;;;;;;1.20;0.70;;;11.90;97.80;;;;;;5079064;28;20461;-76
2022/03/14 08:05:44;;;;;;;1.23;0.50;;;11.70;97.70;;;;;;5085155;28;20470;-76
2022/03/14 08:08:15;;;;;;;0.50;0.50;;;12.10;98.00;;;;;;5084732;28;20585;-77
2022/03/14 08:10:43;;;;;;;1.60;0.60;;;12.30;98.00;;;;;;5083629;28;20450;-76
2022/03/14 08:13:11;;;;;;;4.13;0.60;;;12.60;95.70;;;;;;5083710;28;20458;-78
2022/03/14 08:15:40;;;;;;;0.80;0.60;;;12.90;95.60;;;;;;5086281;28;20438;-76
2022/03/14 08:18:10;;;;;;;3.03;0.70;;;13.00;93.40;;;;;;5082271;28;20485;-77
2022/03/14 08:20:38;;;;;;;1.57;0.90;;;13.30;90.00;;;;;;5081341;28;21207;-77
2022/03/14 08:23:08;;;;;;;3.40;1.90;;;13.40;87.80;;;;;;5088228;28;21130;-79
2022/03/14 08:25:36;;;;;;;2.50;0.60;;;13.20;77.60;;;;;;5071923;28;20467;-77
2022/03/14 08:28:05;;;;;;;1.13;0.80;;;13.10;71.60;;;;;;5082578;28;20559;-77
2022/03/14 08:30:34;;;;;;;4.73;1.90;;;12.90;70.80;;;;;;5080146;28;20840;-76
2022/03/14 08:33:02;;;;;;;1.80;0.60;;;12.90;70.00;;;;;;5084832;28;20459;-77
2022/03/14 08:35:30;;;;;;;0.90;0.70;;;12.50;65.30;;;;;;5083759;28;20467;-76
2022/03/14 08:37:59;;;;;;;2.10;0.60;;;12.30;64.10;;;;;;5078787;28;20471;-77
2022/03/14 08:40:29;;;;;;;1.60;0.50;;;12.30;65.40;;;;;;5084753;28;20583;-78
2022/03/14 08:42:58;;;;;;;1.83;0.80;;;12.20;66.60;;;;;;5080535;28;20462;-78
2022/03/14 08:45:27;;;;;;;3.27;0.60;;;12.30;68.60;;;;;;5076592;28;20570;-78
2022/03/14 08:47:55;;;;;;;8.30;3.20;;;12.40;66.90;;;;;;5073879;28;20475;-77
2022/03/14 08:50:23;;;;;;;0.80;0.50;;;12.80;66.20;;;;;;5085210;28;20455;-78
2022/03/14 08:52:52;;;;;;;1.02;0.60;;;13.20;60.50;;;;;;5081065;28;20460;-78
2022/03/14 08:55:21;;;;;;;0.77;0.53;;;13.00;57.40;;;;;;5078280;28;21096;-77
2022/03/14 08:57:51;;;;;;;0.60;0.60;;;13.10;57.30;;;;;;5082445;28;20447;-77
2022/03/14 09:00:21;;;;;;;1.33;0.53;;;13.50;58.10;;;;;;5076340;28;20470;-77
2022/03/14 09:02:49;;;;;;;2.93;0.80;;;13.40;54.80;;;;;;5078370;28;20451;-78
2022/03/14 09:05:18;;;;;;;2.10;0.60;;;13.70;57.60;;;;;;5082914;28;20448;-77
2022/03/14 09:07:47;;;;;;;1.50;0.60;;;14.00;50.70;;;;;;5083325;28;20484;-78
2022/03/14 09:10:17;;;;;;;0.53;0.53;;;14.40;49.90;;;;;;5084814;28;20460;-77
2022/03/14 09:12:50;;;;;;;0.77;0.60;;;14.60;47.60;;;;;;5078039;28;20545;-77
2022/03/14 09:15:20;;;;;;;1.23;0.80;;;14.80;39.20;;;;;;5079107;28;20440;-77
2022/03/14 09:17:50;;;;;;;0.73;0.70;;;14.90;38.50;;;;;;5080752;28;20204;-78
2022/03/14 09:20:19;;;;;;;1.40;0.60;;;15.20;39.00;;;;;;5074653;28;20937;-78
2022/03/14 09:22:47;;;;;;;0.80;0.60;;;15.20;33.30;;;;;;5083283;28;20442;-79
2022/03/14 09:25:16;;;;;;;2.10;0.70;;;15.10;31.80;;;;;;5080927;28;20456;-77
2022/03/14 09:27:45;;;;;;;2.77;0.60;;;15.50;34.90;;;;;;5080342;28;20535;-77
2022/03/14 09:30:16;;;;;;;1.80;0.67;;;15.40;30.20;;;;;;5083817;28;20466;-78
2022/03/14 09:32:44;;;;;;;1.47;0.50;;;15.30;30.60;;;;;;5078652;28;20459;-77
2022/03/14 09:35:14;;;;;;;0.53;0.50;;;15.30;26.60;;;;;;5086785;28;20447;-77
2022/03/14 09:37:44;;;;;;;0.80;0.60;;;15.30;27.70;;;;;;5077807;28;20535;-79
2022/03/14 09:40:16;;;;;;;2.43;0.63;;;15.50;27.60;;;;;;5080556;28;20508;-78
2022/03/14 09:42:47;;;;;;;1.43;0.80;;;15.80;29.70;;;;;;5084846;28;20462;-77
2022/03/14 09:45:17;;;;;;;1.37;0.60;;;15.90;28.90;;;;;;5081300;28;20491;-77
2022/03/14 09:47:47;;;;;;;1.20;0.90;;;15.90;26.20;;;;;;5079582;28;20559;-77
2022/03/14 09:50:20;;;;;;;2.77;0.70;;;16.00;27.10;;;;;;5079435;28;20440;-78
2022/03/14 09:52:50;;;;;;;0.90;0.67;;;16.00;24.20;;;;;;5076829;28;20452;-78
2022/03/14 09:55:19;;;;;;;0.93;0.57;;;16.40;26.70;;;;;;5080309;28;20597;-78
2022/03/14 09:57:49;;;;;;;1.60;0.60;;;16.40;24.90;;;;;;5068836;28;21014;-78
2022/03/14 10:00:19;;;;;;;1.80;0.60;;;16.20;22.20;;;;;;5082228;28;20445;-78
2022/03/14 10:02:48;;;;;;;2.20;0.90;;;16.20;22.70;;;;;;5080038;28;20451;-77
2022/03/14 10:05:18;;;;;;;1.43;0.63;;;16.50;23.60;;;;;;5081475;28;20537;-78
2022/03/14 10:07:46;;;;;;;1.03;0.77;;;16.60;21.40;;;;;;5085037;28;20473;-76
2022/03/14 10:10:15;;;;;;;2.97;0.70;;;16.60;20.90;;;;;;5083447;28;20457;-77
2022/03/14 10:12:52;;;;;;;1.03;0.60;;;16.80;21.80;;;;;;5081086;28;21094;-78
2022/03/14 10:15:23;;;;;;;0.70;0.50;;;16.70;17.20;;;;;;5081202;28;20453;-77
2022/03/14 10:17:52;;;;;;;2.00;0.60;;;16.60;17.80;;;;;;5081769;28;21363;-77
2022/03/14 10:20:21;;;;;;;0.90;0.57;;;16.60;15.40;;;;;;5078173;28;20496;-77
2022/03/14 10:22:51;;;;;;;1.00;0.50;;;16.60;13.00;;;;;;5078425;28;21121;-78
2022/03/14 10:25:21;;;;;;;2.60;0.80;;;16.80;14.10;;;;;;5083353;28;20442;-78
2022/03/14 10:27:57;;;;;;;1.40;0.67;;;16.90;14.50;;;;;;5080602;28;20499;-79
2022/03/14 10:30:29;;;;;;;1.33;0.50;;;16.50;12.20;;;;;;5081376;28;20455;-77
2022/03/14 10:33:12;;;;;;;0.80;0.50;;;16.10;8.60;;;;;;5083453;28;20448;-78
2022/03/14 10:35:43;;;;;;;0.80;0.50;;;16.20;11.10;;;;;;5086371;28;20467;-78
2022/03/14 10:38:14;;;;;;;1.27;0.87;;;16.40;12.40;;;;;;5083321;28;20484;-78
2022/03/14 10:40:43;;;;;;;1.83;0.60;;;16.60;12.90;;;;;;5085199;28;21399;-79
2022/03/14 10:43:24;;;;;;;1.60;0.90;;;17.00;15.40;;;;;;5081131;28;20824;-78
2022/03/14 10:45:54;;;;;;;1.90;0.50;;;17.20;16.40;;;;;;5084018;28;20436;-77
2022/03/14 10:48:38;;;;;;;0.53;0.50;;;17.10;14.30;;;;;;5080890;28;20565;-77
2022/03/14 10:51:08;;;;;;;0.83;0.60;;;17.40;16.00;;;;;;5084774;28;20489;-77
2022/03/14 10:53:42;;;;;;;2.33;0.80;;;17.30;13.10;;;;;;5082812;28;20450;-78
2022/03/14 10:56:11;;;;;;;1.00;0.70;;;17.30;14.80;;;;;;5079935;28;20998;-78
2022/03/14 10:58:39;;;;;;;1.13;0.60;;;17.60;26.90;;;;;;5084765;28;20466;-79
2022/03/14 11:01:10;;;;;;;0.80;0.60;;;17.50;16.10;;;;;;5080350;28;20467;-78
2022/03/14 11:03:41;;;;;;;1.17;0.70;;;17.40;14.50;;;;;;5084804;28;20441;-78
2022/03/14 11:06:10;;;;;;;1.93;0.53;;;17.50;16.20;;;;;;5077653;28;20460;-77
2022/03/14 11:08:40;;;;;;;1.27;0.63;;;17.70;15.80;;;;;;5084982;28;20907;-77
2022/03/14 11:11:11;;;;;;;0.60;0.60;;;17.50;13.30;;;;;;5086386;28;20459;-77
2022/03/14 11:13:41;;;;;;;0.50;0.50;;;17.70;15.10;;;;;;5081687;28;20457;-78
2022/03/14 11:16:18;;;;;;;0.50;0.50;;;17.50;11.00;;;;;;5078300;28;20805;-78
2022/03/14 11:18:47;;;;;;;1.23;0.60;;;17.40;9.60;;;;;;5080952;28;20557;-78
2022/03/14 11:21:18;;;;;;;0.97;0.60;;;17.60;11.90;;;;;;5084619;28;21001;-79
2022/03/14 11:23:48;;;;;;;1.07;0.60;;;17.50;10.50;;;;;;5082320;28;20461;-79
2022/03/14 11:26:19;;;;;;;2.07;0.63;;;17.70;10.20;;;;;;5087194;28;20507;-79
2022/03/14 11:28:50;;;;;;;1.50;0.80;;;17.80;11.60;;;;;;5081118;28;20483;-77
2022/03/14 11:31:21;;;;;;;0.70;0.70;;;17.70;10.50;;;;;;5082933;28;20454;-77
2022/03/14 11:33:50;;;;;;;0.90;0.70;;;18.30;14.20;;;;;;5078683;28;20533;-78
2022/03/14 11:36:20;;;;;;;1.60;0.60;;;18.10;25.50;;;;;;5084455;28;20453;-78
2022/03/14 11:38:49;;;;;;;0.73;0.70;;;18.50;14.30;;;;;;5073986;28;20834;-78
2022/03/14 11:41:18;;;;;;;2.10;1.50;;;18.50;14.40;;;;;;5079700;28;20461;-78
2022/03/14 11:43:48;;;;;;;0.63;0.50;;;18.30;12.60;;;;;;5085990;28;20851;-77
2022/03/14 11:46:38;;;;;;;1.43;0.70;;;17.70;7.30;;;;;;5085488;28;20555;-78
2022/03/14 11:49:13;;;;;;;0.90;0.50;;;17.60;7.30;;;;;;5082018;28;20465;-79
2022/03/14 11:51:42;;;;;;;0.93;0.60;;;17.80;10.60;;;;;;5082017;28;20456;-77
2022/03/14 11:54:12;;;;;;;0.80;0.80;;;17.60;6.90;;;;;;5081156;28;20446;-77
2022/03/14 11:56:54;;;;;;;0.63;0.50;;;17.70;8.90;;;;;;5083264;28;20445;-77
2022/03/14 11:59:30;;;;;;;0.60;0.50;;;17.70;7.00;;;;;;5079895;28;20466;-77
2022/03/14 12:02:02;;;;;;;0.63;0.60;;;17.70;8.10;;;;;;5084164;28;21223;-80
2022/03/14 12:04:31;;;;;;;1.00;0.60;;;17.80;10.70;;;;;;5087292;28;20552;-80
2022/03/14 12:07:11;;;;;;;0.50;0.50;;;18.00;13.00;;;;;;5083282;28;20495;-80
2022/03/14 12:09:48;;;;;;;1.20;0.60;;;18.00;12.30;;;;;;5082431;28;20469;-80
2022/03/14 12:12:33;;;;;;;0.80;0.60;;;18.30;16.10;;;;;;5081239;28;20461;-80
2022/03/14 12:15:04;;;;;;;1.20;0.80;;;18.40;15.30;;;;;;5076225;28;20454;-79
2022/03/14 12:17:36;;;;;;;1.63;0.80;;;18.50;15.30;;;;;;5084712;28;20473;-77
2022/03/14 12:20:06;;;;;;;2.43;0.90;;;18.40;12.80;;;;;;5082641;28;20476;-77
2022/03/14 12:22:37;;;;;;;1.37;0.50;;;18.20;10.20;;;;;;5079440;28;20467;-77
2022/03/14 12:25:08;;;;;;;0.70;0.60;;;17.90;6.90;;;;;;5079599;28;21507;-75
2022/03/14 12:27:37;;;;;;;1.30;0.53;;;17.40;6.50;;;;;;5078862;28;20458;-77
2022/03/14 12:30:27;;;;;;;1.60;0.80;;;17.80;6.60;;;;;;5076471;28;20457;-76
2022/03/14 12:32:57;;;;;;;0.97;0.50;;;17.90;6.30;;;;;;5084353;28;20459;-76
2022/03/14 12:35:27;;;;;;;1.00;0.60;;;18.00;8.30;;;;;;5076987;28;20457;-77
2022/03/14 12:37:57;;;;;;;1.37;0.50;;;18.30;10.10;;;;;;5078410;28;20462;-77
2022/03/14 12:40:45;;;;;;;1.70;0.50;;;18.30;11.50;;;;;;5080804;28;20461;-78
2022/03/14 12:43:23;;;;;;;2.30;0.50;;;18.50;11.40;;;;;;5081514;28;20450;-78
2022/03/14 12:45:53;;;;;;;0.50;0.50;;;18.40;10.40;;;;;;5073813;28;20544;-77
2022/03/14 12:48:25;;;;;;;0.90;0.50;;;18.60;11.90;;;;;;5081794;28;20485;-77
2022/03/14 12:51:02;;;;;;;0.60;0.50;;;18.70;12.30;;;;;;5082314;28;20458;-77
2022/03/14 12:53:45;;;;;;;0.93;0.60;;;18.60;10.00;;;;;;5078304;28;20555;-77
2022/03/14 12:56:24;;;;;;;0.47;0.47;;;18.70;11.00;;;;;;5077911;28;21337;-76
2022/03/14 12:58:55;;;;;;;1.33;0.73;;;18.90;12.20;;;;;;5075639;28;20489;-77
2022/03/14 13:01:24;;;;;;;0.40;0.40;;;18.60;8.80;;;;;;5080729;28;20801;-77